Farnham, Ohio
Current Conditions -  °F | °C
As of 10:53 AM on Tuesday 21 Oct 2014 (Local Time) from KHZY Reporting Station
Light Rain Light Rain  
Wind Chill: 50°   Ceiling: 2800
Heat Index: 50°   Visibility: 10mi
Dew Point: 46°   Wind: 8mph
Humidity: 86%   Direction: 350°N
Pressure: 29.9"   Gusts: NA
Location:  41.8949°N, 80.5816°W
Report Text: KHZY 211453Z AUTO 35007KT 10SM -RA FEW020 BKN028 OVC038 10/08 A2990 RMK AO2 SLP128 P0006 60007 T01000078 51013
Loading
Personal Weather Stations






























Interactive Weather Map
Tropical Storm Tracking
New forecast layout! Learn more

10-Day Weather Forecast

Advertisements
Track Severe Weather on mobile